Agricola, Mississippi
Current Conditions -  °F | °C
As of 3:56 PM on Monday 24 Nov 2014 (Local Time) from KMOB Reporting Station
Broken Clouds Broken Clouds  
Wind Chill: 70°   Ceiling: 25000
Heat Index: 70°   Visibility: 10mi
Dew Point: 51°   Wind: 6mph
Humidity: 51%   Direction: 320°NW
Pressure: 29.87"   Gusts: NA
Location:  30.8443°N, 88.5703°W
Report Text: KMOB 242156Z 32005KT 10SM BKN250 21/11 A2987 RMK AO2 SLP112 T02110106
Loading
Personal Weather Stations






























Interactive Weather Map New forecast layout! Learn more

10-Day Weather Forecast

Advertisements
Track Severe Weather on mobile